Time;durP1;ratioP1;P1;durP2;ratioP2;P2;SDS_P1;SDS_P2;PMS_P1;PMS_P2;Temp;Humidity;BMP_temperature;BMP_pressure;BME280_temperature;BME280_humidity;BME280_pressure;Samples;Min_cycle;Max_cycle;Signal;HPM_P1;HPM_P2
2024/04/07 00:00:21;;;;;;;50.20;29.50;;;;;;;9.05;100.00;99396.09;272171;1268;22278;-84
2024/04/07 00:07:36;;;;;;;40.20;25.70;;;;;;;8.95;100.00;99393.02;273278;1270;22291;-83
2024/04/07 00:14:02;;;;;;;38.50;24.70;;;;;;;8.95;100.00;99394.73;273204;1270;22568;-84
2024/04/07 00:20:35;;;;;;;43.10;27.30;;;;;;;8.93;100.00;99396.65;272454;1256;23892;-84
2024/04/07 00:26:54;;;;;;;37.40;25.10;;;;;;;8.88;100.00;99389.28;272352;1269;22562;-84
2024/04/07 00:32:55;;;;;;;36.60;22.50;;;;;;;8.78;100.00;99391.46;272319;1269;22252;-83
2024/04/07 00:46:49;;;;;;;41.20;24.30;;;;;;;8.73;100.00;99389.94;273036;1269;22413;-83
2024/04/07 00:53:22;;;;;;;33.40;20.60;;;;;;;8.67;100.00;99391.48;273881;1260;22290;-83
2024/04/07 01:00:27;;;;;;;36.60;22.50;;;;;;;8.60;100.00;99399.34;274078;1272;22303;-84
2024/04/07 01:06:34;;;;;;;35.70;22.20;;;;;;;8.59;100.00;99398.54;273097;1269;23018;-84
2024/04/07 01:13:24;;;;;;;37.80;21.90;;;;;;;8.50;100.00;99400.09;272832;1269;22284;-84
2024/04/07 01:19:46;;;;;;;37.40;22.20;;;;;;;8.45;100.00;99395.98;273486;1269;22672;-83
2024/04/07 01:26:15;;;;;;;28.70;19.30;;;;;;;8.40;100.00;99392.37;274071;1271;23062;-84
2024/04/07 01:32:43;;;;;;;28.50;18.40;;;;;;;8.33;100.00;99396.54;274012;1269;22303;-83
2024/04/07 01:39:11;;;;;;;;;;;;;;;8.25;100.00;99391.63;273903;1272;22463;-84
2024/04/07 01:46:18;;;;;;;29.70;19.40;;;;;;;8.14;100.00;99394.70;273090;1273;23501;-84
2024/04/07 01:52:44;;;;;;;33.90;20.80;;;;;;;8.09;100.00;99397.28;272914;1275;22452;-84
2024/04/07 01:59:11;;;;;;;41.40;24.30;;;;;;;8.04;100.00;99397.91;271257;1272;22303;-83
2024/04/07 02:05:12;;;;;;;42.40;22.30;;;;;;;7.96;100.00;99389.51;273527;1259;22273;-84
2024/04/07 02:11:39;;;;;;;32.40;19.70;;;;;;;7.84;100.00;99386.69;273611;1269;22408;-83
2024/04/07 02:18:31;;;;;;;37.70;21.90;;;;;;;7.76;100.00;99396.58;273626;1269;23283;-84
2024/04/07 02:24:57;;;;;;;35.60;21.60;;;;;;;7.69;100.00;99398.55;273530;1269;22569;-84
2024/04/07 02:31:49;;;;;;;40.00;23.40;;;;;;;7.60;100.00;99394.80;272490;1269;22385;-84
2024/04/07 02:37:50;;;;;;;36.90;21.80;;;;;;;7.56;100.00;99387.58;272788;1269;22600;-83
2024/04/07 02:51:07;;;;;;;31.30;18.40;;;;;;;7.53;100.00;99389.85;273469;1269;22507;-83
2024/04/07 02:57:28;;;;;;;27.50;18.60;;;;;;;7.51;100.00;99401.32;273109;1269;23222;-84
2024/04/07 03:03:31;;;;;;;25.20;17.00;;;;;;;7.45;100.00;99412.10;272708;1268;22559;-84
2024/04/07 03:09:32;;;;;;;23.40;16.10;;;;;;;7.45;100.00;99408.38;272692;1269;22257;-84
2024/04/07 03:15:33;;;;;;;28.70;16.00;;;;;;;7.46;100.00;99409.23;271849;1267;22559;-83
2024/04/07 03:21:34;;;;;;;22.90;17.20;;;;;;;7.44;100.00;99404.77;271131;1269;22422;-83
2024/04/07 03:27:35;;;;;;;25.30;17.20;;;;;;;7.38;100.00;99403.10;273166;1259;23661;-83
2024/04/07 03:33:38;;;;;;;25.60;17.00;;;;;;;7.35;100.00;99402.06;272924;1269;22270;-83
2024/04/07 03:39:39;;;;;;;23.60;15.70;;;;;;;7.31;100.00;99410.83;271547;1268;22573;-84
2024/04/07 03:45:41;;;;;;;26.60;18.40;;;;;;;7.31;100.00;99415.79;272770;1260;24382;-85
2024/04/07 03:51:44;;;;;;;26.40;18.50;;;;;;;7.31;100.00;99414.06;272371;1268;22940;-83
2024/04/07 03:57:45;;;;;;;28.40;17.70;;;;;;;7.34;100.00;99413.57;273171;1269;23257;-83
2024/04/07 04:03:46;;;;;;;29.70;19.60;;;;;;;7.34;100.00;99414.24;272741;1268;23658;-83
2024/04/07 04:09:51;;;;;;;29.80;19.80;;;;;;;7.31;100.00;99414.23;273147;1269;22585;-83
2024/04/07 04:15:52;;;;;;;21.70;15.30;;;;;;;7.27;100.00;99411.64;272727;1269;22475;-83
2024/04/07 04:21:53;;;;;;;23.00;15.30;;;;;;;7.29;100.00;99420.09;272884;1269;22489;-83
2024/04/07 04:35:24;;;;;;;30.20;21.50;;;;;;;7.36;100.00;99425.30;273874;1272;22338;-83
2024/04/07 04:41:50;;;;;;;23.50;15.10;;;;;;;7.43;100.00;99424.02;272962;1269;22388;-85
2024/04/07 04:47:51;;;;;;;26.90;19.20;;;;;;;7.60;100.00;99421.89;273225;1269;22501;-84
2024/04/07 04:54:44;;;;;;;25.40;19.60;;;;;;;7.79;100.00;99426.16;273531;1269;23656;-84
2024/04/07 05:00:46;;;;;;;33.20;20.40;;;;;;;7.98;100.00;99422.98;273577;1269;22362;-83
2024/04/07 05:06:51;;;;;;;31.10;21.00;;;;;;;8.25;100.00;99417.03;272939;1269;22360;-84
2024/04/07 05:13:17;;;;;;;29.00;19.80;;;;;;;8.56;100.00;99414.14;273688;1269;22248;-84
2024/04/07 05:19:40;;;;;;;24.40;17.90;;;;;;;8.82;100.00;99411.38;272590;1265;22411;-83
2024/04/07 05:25:47;;;;;;;26.70;18.00;;;;;;;8.99;100.00;99413.19;273984;1269;22256;-84
2024/04/07 05:39:50;;;;;;;27.50;18.90;;;;;;;9.37;100.00;99417.80;273642;1270;22292;-84
2024/04/07 05:46:55;;;;;;;27.20;18.00;;;;;;;9.69;100.00;99418.68;273477;1269;22137;-85
2024/04/07 05:53:18;;;;;;;27.80;19.70;;;;;;;10.07;100.00;99425.80;273471;1269;22520;-83
2024/04/07 06:06:02;;;;;;;23.40;17.40;;;;;;;10.94;100.00;99445.32;270836;1269;22538;-82
2024/04/07 06:12:04;;;;;;;23.40;16.50;;;;;;;11.40;100.00;99448.54;272195;1269;22353;-86
2024/04/07 06:18:06;;;;;;;25.70;17.40;;;;;;;11.78;100.00;99445.98;273246;1266;22578;-86
2024/04/07 06:24:19;;;;;;;25.90;16.40;;;;;;;12.12;100.00;99443.99;272499;1269;22530;-86
2024/04/07 06:30:21;;;;;;;19.80;14.40;;;;;;;12.39;100.00;99445.56;272367;1269;23764;-84
2024/04/07 06:36:22;;;;;;;21.40;13.80;;;;;;;12.64;100.00;99447.70;273054;1269;22654;-84
2024/04/07 06:42:27;;;;;;;18.10;12.60;;;;;;;12.95;100.00;99444.88;272670;1269;22454;-85
2024/04/07 06:48:55;;;;;;;16.50;10.90;;;;;;;13.25;100.00;99445.67;273642;1271;23419;-85
2024/04/07 06:54:56;;;;;;;18.40;10.90;;;;;;;13.50;100.00;99447.35;273481;1272;22594;-85
2024/04/07 07:01:48;;;;;;;15.10;10.90;;;;;;;13.79;100.00;99448.78;265273;1269;10137830;-85
2024/04/07 07:07:49;;;;;;;20.80;11.90;;;;;;;14.15;100.00;99443.30;271967;1269;23698;-85
2024/04/07 07:14:15;;;;;;;15.40;10.80;;;;;;;14.57;100.00;99439.04;271829;1269;22298;-85
2024/04/07 07:27:58;;;;;;;14.80;9.00;;;;;;;15.69;100.00;99445.75;272075;1269;27811;-85
2024/04/07 08:13:50;;;;;;;4.70;3.10;;;;;;;19.85;98.70;99447.74;269819;1278;22758;-84
2024/04/07 08:29:19;;;;;;;4.10;2.40;;;;;;;20.74;93.60;99445.83;271278;1283;22316;-84
2024/04/07 08:36:30;;;;;;;3.90;2.50;;;;;;;21.11;90.69;99439.34;268452;1273;22576;-84
2024/04/07 08:42:32;;;;;;;5.10;2.50;;;;;;;21.41;88.99;99442.86;270809;1272;23419;-85
2024/04/07 08:48:33;;;;;;;5.40;2.20;;;;;;;21.62;86.13;99437.54;270330;1270;22594;-84
2024/04/07 08:55:13;;;;;;;3.50;2.60;;;;;;;21.80;84.15;99435.11;271009;1269;22425;-85
2024/04/07 09:01:43;;;;;;;4.00;1.90;;;;;;;22.11;82.74;99428.58;273728;1269;22335;-83
2024/04/07 09:07:47;;;;;;;4.00;1.90;;;;;;;22.48;79.72;99425.67;271747;1268;25452;-82
2024/04/07 09:13:50;;;;;;;4.40;2.00;;;;;;;22.97;78.24;99421.17;271866;1269;22413;-84
2024/04/07 09:19:51;;;;;;;3.90;1.80;;;;;;;23.45;73.90;99416.98;271804;1269;24135;-83
2024/04/07 09:26:17;;;;;;;6.50;1.80;;;;;;;24.09;72.41;99409.25;272235;1269;23482;-84
2024/04/07 09:32:19;;;;;;;1.80;1.50;;;;;;;24.67;70.80;99403.70;273078;1269;22531;-84
2024/04/07 09:38:20;;;;;;;3.80;1.60;;;;;;;25.29;67.95;99394.14;272278;1269;22429;-82
2024/04/07 09:44:24;;;;;;;4.00;1.40;;;;;;;25.83;65.52;99388.13;272278;1269;23046;-84
2024/04/07 09:50:33;;;;;;;5.00;2.10;;;;;;;26.20;61.96;99387.42;272867;1269;23491;-84
2024/04/07 09:57:17;;;;;;;1.90;1.60;;;;;;;26.50;59.01;99382.58;272607;1269;22264;-83
2024/04/07 10:03:58;;;;;;;2.50;1.40;;;;;;;26.76;58.19;99372.84;273518;1269;22244;-84
2024/04/07 10:10:01;;;;;;;2.40;1.60;;;;;;;26.83;56.68;99362.21;273066;1272;22387;-84
2024/04/07 10:16:03;;;;;;;2.80;1.40;;;;;;;27.17;55.49;99354.16;272796;1270;22273;-82
2024/04/07 10:22:04;;;;;;;2.00;1.10;;;;;;;27.46;53.91;99346.67;273035;1269;22553;-84
2024/04/07 10:28:36;;;;;;;2.10;0.80;;;;;;;27.48;52.03;99345.14;270867;1269;22444;-84
2024/04/07 10:34:37;;;;;;;2.80;1.00;;;;;;;27.56;48.55;99337.41;270261;1269;23479;-86
2024/04/07 10:40:58;;;;;;;1.40;0.80;;;;;;;27.53;45.95;99336.12;272531;1269;22489;-85
2024/04/07 10:46:59;;;;;;;2.10;0.90;;;;;;;27.77;46.82;99327.80;273026;1269;22649;-84
2024/04/07 10:53:06;;;;;;;2.10;1.10;;;;;;;28.30;45.86;99316.73;273110;1269;22658;-84
2024/04/07 10:59:17;;;;;;;1.70;1.10;;;;;;;28.72;45.43;99313.22;272736;1264;22375;-85
2024/04/07 11:05:25;;;;;;;0.90;0.80;;;;;;;28.93;44.61;99310.41;273265;1269;22857;-83
2024/04/07 11:11:55;;;;;;;1.20;0.80;;;;;;;29.00;43.46;99306.00;273437;1269;22433;-82
2024/04/07 11:18:15;;;;;;;1.70;0.90;;;;;;;28.79;42.01;99301.30;273217;1254;22299;-84
2024/04/07 11:25:00;;;;;;;1.60;0.80;;;;;;;28.68;40.98;99297.14;273509;1269;22540;-82
2024/04/07 11:31:10;;;;;;;1.60;0.70;;;;;;;28.63;40.07;99297.11;273383;1269;22329;-83
2024/04/07 11:37:11;;;;;;;1.90;0.70;;;;;;;28.88;39.72;99298.41;272494;1269;22529;-86
2024/04/07 11:43:19;;;;;;;1.30;0.70;;;;;;;29.08;39.30;99302.98;271962;1270;22403;-84
2024/04/07 11:49:33;;;;;;;2.30;0.60;;;;;;;28.91;39.54;99298.66;273503;1254;25240;-83
2024/04/07 11:55:34;;;;;;;0.70;0.50;;;;;;;29.05;39.90;99292.15;273697;1269;23761;-85
2024/04/07 12:01:38;;;;;;;0.50;0.50;;;;;;;28.74;38.63;99285.02;272034;1269;23690;-84
2024/04/07 12:07:42;;;;;;;2.80;1.00;;;;;;;28.36;39.74;99275.95;271989;1269;22627;-84
2024/04/07 12:13:43;;;;;;;1.60;0.90;;;;;;;28.52;40.45;99272.67;273437;1270;22407;-83
2024/04/07 12:19:49;;;;;;;0.90;0.70;;;;;;;28.51;39.79;99271.84;270907;1253;23480;-83
2024/04/07 12:25:51;;;;;;;1.60;1.10;;;;;;;28.22;39.31;99268.30;270088;1269;23504;-86
2024/04/07 12:31:53;;;;;;;1.50;1.00;;;;;;;28.04;40.22;99261.81;271056;1269;22550;-84
2024/04/07 12:38:23;;;;;;;2.50;1.50;;;;;;;27.93;40.85;99259.21;270956;1269;23909;-84
2024/04/07 12:45:35;;;;;;;;;;;;;;;;;;;;;
2024/04/07 12:52:06;;;;;;;4.70;3.40;;;;;;;27.52;41.72;99249.36;271411;1269;23740;-85
2024/04/07 12:58:28;;;;;;;2.80;1.30;;;;;;;27.45;41.76;99249.38;270278;1269;22643;-82
2024/04/07 13:04:30;;;;;;;1.60;1.00;;;;;;;27.42;42.18;99245.27;273692;1270;22283;-84
2024/04/07 13:10:55;;;;;;;2.50;0.90;;;;;;;27.56;42.84;99239.52;271501;1262;22633;-83
2024/04/07 13:17:23;;;;;;;1.20;0.70;;;;;;;27.61;42.33;99228.36;270592;1270;22571;-86
2024/04/07 13:23:24;;;;;;;2.90;1.20;;;;;;;27.60;42.31;99215.91;270543;1269;22274;-85
2024/04/07 13:29:25;;;;;;;1.40;1.00;;;;;;;27.51;42.48;99212.73;271809;1254;25607;-84
2024/04/07 13:35:37;;;;;;;3.60;1.50;;;;;;;27.32;42.83;99205.98;271358;1270;22855;-84
2024/04/07 13:41:53;;;;;;;1.90;1.00;;;;;;;27.15;43.15;99207.23;272965;1269;22259;-84
2024/04/07 13:47:54;;;;;;;1.60;1.00;;;;;;;27.12;43.46;99205.27;271850;1270;22559;-84
2024/04/07 13:53:57;;;;;;;2.30;1.10;;;;;;;27.12;44.07;99204.61;272099;1270;23421;-83
2024/04/07 14:00:13;;;;;;;1.30;1.00;;;;;;;27.23;44.56;99200.98;273259;1270;24091;-83
2024/04/07 14:06:14;;;;;;;1.90;1.60;;;;;;;27.32;44.46;99198.49;271874;1270;22415;-83
2024/04/07 14:12:37;;;;;;;3.70;2.40;;;;;;;27.40;44.67;99201.14;273498;1270;22335;-83
2024/04/07 14:19:24;;;;;;;2.60;1.10;;;;;;;27.38;44.81;99197.44;273001;1269;22415;-81
2024/04/07 14:25:26;;;;;;;2.20;1.30;;;;;;;27.32;45.18;99195.27;273449;1270;22529;-83
2024/04/07 14:31:31;;;;;;;2.30;1.00;;;;;;;27.10;44.96;99193.90;273287;1270;22476;-84
2024/04/07 14:37:32;;;;;;;1.40;1.00;;;;;;;26.92;45.54;99191.04;273286;1269;22539;-83
2024/04/07 14:43:38;;;;;;;2.90;1.40;;;;;;;27.02;45.76;99189.70;272917;1270;22661;-83
2024/04/07 14:50:21;;;;;;;1.70;1.20;;;;;;;27.20;45.86;99184.12;273273;1269;23437;-83
2024/04/07 14:56:23;;;;;;;3.10;1.40;;;;;;;27.24;45.42;99177.27;273301;1271;22286;-83
2024/04/07 15:02:25;;;;;;;2.50;1.90;;;;;;;27.13;45.51;99177.31;273251;1270;22402;-85
2024/04/07 15:08:28;;;;;;;8.90;2.80;;;;;;;26.96;45.70;99184.77;271480;1270;23331;-84
2024/04/07 15:14:32;;;;;;;2.30;1.60;;;;;;;26.77;45.73;99186.61;270608;1259;23339;-84
2024/04/07 15:21:03;;;;;;;3.00;1.50;;;;;;;26.58;45.67;99185.14;269939;1270;24048;-84
2024/04/07 15:27:05;;;;;;;5.70;2.10;;;;;;;26.37;45.84;99184.67;271053;1269;25332;-83
2024/04/07 15:33:06;;;;;;;6.40;3.60;;;;;;;26.18;45.87;99186.48;271304;1270;22534;-85
2024/04/07 15:39:08;;;;;;;3.10;1.30;;;;;;;25.97;46.11;99190.02;269915;1259;23832;-85
2024/04/07 15:45:09;;;;;;;2.50;1.30;;;;;;;25.76;46.36;99194.32;269759;1262;22556;-83
2024/04/07 15:51:41;;;;;;;4.00;1.00;;;;;;;25.51;46.77;99188.69;269599;1269;22638;-83
2024/04/07 15:58:17;;;;;;;5.20;1.40;;;;;;;25.26;46.98;99180.87;269243;1270;22524;-83
2024/04/07 16:04:18;;;;;;;3.90;1.40;;;;;;;25.05;47.34;99178.86;269191;1261;22514;-83
2024/04/07 16:10:19;;;;;;;3.40;1.90;;;;;;;24.86;48.08;99179.11;268818;1269;23604;-83
2024/04/07 16:16:25;;;;;;;3.50;2.00;;;;;;;24.62;48.44;99180.79;269100;1270;22847;-84
2024/04/07 16:22:26;;;;;;;3.70;2.50;;;;;;;24.42;48.77;99187.21;271363;1269;22146;-84
2024/04/07 16:28:29;;;;;;;3.40;1.90;;;;;;;24.23;48.99;99186.27;273434;1270;22274;-82
2024/04/07 16:34:31;;;;;;;5.10;1.90;;;;;;;24.06;49.37;99181.95;270045;1269;22555;-84
2024/04/07 16:40:32;;;;;;;2.70;1.40;;;;;;;23.88;50.07;99183.27;270108;1263;24424;-85
2024/04/07 16:46:41;;;;;;;2.50;1.40;;;;;;;23.73;50.52;99179.08;263364;1263;10001927;-85
2024/04/07 16:52:42;;;;;;;1.50;0.90;;;;;;;23.56;50.94;99181.58;272694;1270;22965;-85
2024/04/07 16:58:53;;;;;;;1.70;1.20;;;;;;;23.37;51.43;99180.96;272967;1270;22275;-85
2024/04/07 17:04:56;;;;;;;4.40;1.40;;;;;;;23.22;52.06;99179.95;273141;1272;22294;-85
2024/04/07 17:10:59;;;;;;;2.50;1.40;;;;;;;23.07;52.54;99180.88;272891;1267;23496;-85
2024/04/07 17:17:03;;;;;;;2.70;1.40;;;;;;;22.89;52.80;99183.87;273185;1271;23712;-83
2024/04/07 17:23:04;;;;;;;2.10;1.50;;;;;;;22.71;53.04;99188.89;270451;1262;22522;-84
2024/04/07 17:29:08;;;;;;;2.80;1.70;;;;;;;22.50;53.34;99192.24;272551;1270;22470;-84
2024/04/07 17:35:51;;;;;;;3.00;2.00;;;;;;;22.13;54.15;99198.30;273107;1270;23437;-84
2024/04/07 17:41:53;;;;;;;5.40;1.90;;;;;;;21.60;55.35;99200.04;273194;1269;22243;-83
2024/04/07 17:47:55;;;;;;;2.60;1.60;;;;;;;21.22;56.51;99204.33;272849;1269;23385;-84
2024/04/07 17:53:57;;;;;;;3.50;1.60;;;;;;;20.90;57.49;99203.30;272903;1270;22394;-85
2024/04/07 18:00:18;;;;;;;5.40;1.80;;;;;;;20.43;58.44;99206.36;272628;1269;22454;-83
2024/04/07 18:06:19;;;;;;;4.80;1.90;;;;;;;19.99;59.95;99215.35;272916;1270;22339;-85
2024/04/07 18:12:39;;;;;;;3.00;1.90;;;;;;;19.61;60.89;99213.26;273017;1270;22490;-84
2024/04/07 18:18:40;;;;;;;3.10;2.00;;;;;;;19.28;62.56;99218.39;272783;1253;22363;-86
2024/04/07 18:24:57;;;;;;;7.60;2.80;;;;;;;18.97;63.37;99216.45;271778;1257;24076;-85
2024/04/07 18:31:36;;;;;;;4.10;2.30;;;;;;;18.70;65.27;99210.77;273060;1265;23607;-85
2024/04/07 18:37:37;;;;;;;5.80;2.30;;;;;;;18.47;66.30;99213.72;272362;1270;22417;-85
2024/04/07 18:43:38;;;;;;;10.30;2.50;;;;;;;18.28;67.10;99217.98;273164;1259;23086;-84
2024/04/07 18:49:57;;;;;;;20.70;3.70;;;;;;;18.15;67.63;99223.17;273235;1270;23010;-84
2024/04/07 18:55:59;;;;;;;8.40;2.70;;;;;;;17.89;68.37;99222.85;271667;1270;22561;-84
2024/04/07 19:02:40;;;;;;;12.20;2.90;;;;;;;17.63;69.54;99223.22;272727;1270;180471;-83
2024/04/07 19:09:03;;;;;;;10.10;3.20;;;;;;;17.37;71.12;99223.55;273285;1259;22960;-85
2024/04/07 19:15:06;;;;;;;10.90;2.90;;;;;;;17.20;72.27;99226.44;273078;1270;22319;-85
2024/04/07 19:21:11;;;;;;;6.10;2.90;;;;;;;17.00;72.99;99226.11;271920;1266;22468;-84
2024/04/07 19:27:30;;;;;;;5.60;3.10;;;;;;;16.81;74.01;99224.58;273182;1271;23641;-84
2024/04/07 19:34:01;;;;;;;6.00;3.30;;;;;;;16.62;75.26;99227.20;272042;1270;23528;-84
2024/04/07 19:40:15;;;;;;;8.50;4.40;;;;;;;16.43;76.08;99227.52;273343;1263;22558;-84
2024/04/07 19:46:16;;;;;;;12.90;3.30;;;;;;;16.17;76.77;99225.36;273166;1267;22790;-84
2024/04/07 19:52:23;;;;;;;11.90;3.40;;;;;;;16.04;78.03;99229.16;273027;1270;22363;-84
2024/04/07 19:58:25;;;;;;;9.90;3.60;;;;;;;15.95;78.92;99229.16;272348;1270;23918;-84
2024/04/07 20:05:07;;;;;;;9.60;4.20;;;;;;;15.80;79.77;99223.02;271154;1271;22269;-83
2024/04/07 20:11:20;;;;;;;10.50;3.60;;;;;;;15.65;80.89;99225.79;272470;1264;22478;-84
2024/04/07 20:17:23;;;;;;;8.60;3.70;;;;;;;15.48;81.54;99231.46;273011;1271;22295;-86
2024/04/07 20:23:25;;;;;;;15.70;4.00;;;;;;;15.37;82.62;99232.21;272155;1254;22263;-85
2024/04/07 20:29:28;;;;;;;18.30;4.50;;;;;;;15.25;83.44;99234.77;272444;1270;22263;-85
2024/04/07 20:35:29;;;;;;;11.00;5.80;;;;;;;15.11;82.90;99234.34;271640;1265;22521;-85
2024/04/07 20:41:30;;;;;;;12.50;5.50;;;;;;;15.02;84.36;99229.10;271659;1269;22571;-84
2024/04/07 20:47:53;;;;;;;10.00;5.60;;;;;;;14.96;85.66;99228.40;272032;1270;22369;-83
2024/04/07 20:53:57;;;;;;;12.60;5.90;;;;;;;14.74;87.28;99235.46;272951;1269;23664;-83
2024/04/07 21:00:56;;;;;;;9.70;4.60;;;;;;;14.68;88.55;99242.16;272807;1268;22537;-83
2024/04/07 21:06:58;;;;;;;19.60;7.10;;;;;;;14.66;87.43;99244.38;271131;1270;22562;-84
2024/04/07 21:12:59;;;;;;;11.30;6.90;;;;;;;14.42;86.63;99245.34;270632;1270;22540;-84
2024/04/07 21:19:02;;;;;;;13.70;6.80;;;;;;;14.41;88.54;99241.55;270690;1267;25360;-84
2024/04/07 21:25:03;;;;;;;10.80;6.60;;;;;;;14.42;89.90;99243.14;270525;1269;22601;-84
2024/04/07 21:31:04;;;;;;;10.60;6.50;;;;;;;14.39;90.15;99243.45;270964;1270;22608;-84
2024/04/07 21:37:33;;;;;;;11.70;6.40;;;;;;;14.25;90.59;99245.01;272251;1270;22566;-85
2024/04/07 21:43:35;;;;;;;10.70;6.60;;;;;;;14.05;91.12;99252.69;270892;1270;22601;-84
2024/04/07 21:49:38;;;;;;;9.60;5.70;;;;;;;13.87;91.78;99253.21;272710;1259;22501;-85
2024/04/07 21:55:40;;;;;;;12.70;6.00;;;;;;;13.76;92.59;99252.09;271154;1270;22525;-84
2024/04/07 22:01:46;;;;;;;12.70;6.40;;;;;;;13.69;93.19;99255.69;270651;1270;22682;-83
2024/04/07 22:07:47;;;;;;;10.60;6.30;;;;;;;13.57;93.39;99260.67;270560;1270;22632;-83
2024/04/07 22:13:48;;;;;;;9.70;6.20;;;;;;;13.43;94.03;99259.45;270419;1271;22245;-84
2024/04/07 22:19:49;;;;;;;11.20;6.60;;;;;;;13.30;94.59;99246.98;272148;1263;23112;-84
2024/04/07 22:26:06;;;;;;;11.00;6.10;;;;;;;13.21;95.30;99245.52;270516;1270;22501;-83
2024/04/07 22:32:15;;;;;;;10.20;5.90;;;;;;;13.09;95.83;99247.34;272037;1268;22540;-86
2024/04/07 22:38:16;;;;;;;13.00;5.60;;;;;;;13.01;96.23;99249.58;271181;1272;22431;-83
2024/04/07 22:44:17;;;;;;;8.40;6.00;;;;;;;12.95;96.49;99245.42;271312;1270;23461;-83
2024/04/07 22:50:18;;;;;;;10.20;6.00;;;;;;;12.88;96.86;99246.34;272201;1270;22563;-83
2024/04/07 22:56:19;;;;;;;14.10;5.70;;;;;;;12.77;97.27;99242.83;270801;1271;22428;-84
2024/04/07 23:02:40;;;;;;;8.90;5.20;;;;;;;12.64;97.68;99248.62;271084;1271;22776;-84
2024/04/07 23:08:42;;;;;;;9.90;5.40;;;;;;;12.45;97.78;99249.35;270242;1271;22643;-83
2024/04/07 23:14:47;;;;;;;8.00;4.90;;;;;;;12.32;98.52;99241.64;270014;1259;23816;-85
2024/04/07 23:20:48;;;;;;;7.90;4.50;;;;;;;12.26;98.92;99236.64;269501;1270;27831;-84
2024/04/07 23:27:32;;;;;;;9.70;5.20;;;;;;;12.17;99.28;99235.23;269728;1263;22456;-84
2024/04/07 23:33:59;;;;;;;7.10;4.40;;;;;;;12.10;99.89;99226.25;271621;1270;24292;-84
2024/04/07 23:40:00;;;;;;;7.90;5.00;;;;;;;12.05;99.99;99220.16;271344;1270;23391;-83
2024/04/07 23:46:01;;;;;;;7.40;5.20;;;;;;;12.00;100.00;99215.49;270501;1270;22609;-83
2024/04/07 23:52:16;;;;;;;11.00;5.30;;;;;;;11.87;100.00;99213.34;270645;1270;23466;-84
2024/04/07 23:58:20;;;;;;;8.50;5.40;;;;;;;11.74;100.00;99212.67;271214;1270;22576;-84
